sensor_id;sensor_type;location;lat;lon;timestamp;temperature;humidity
24207;DHT22;12351;52.284;9.160;2023-08-17T00:01:31;19.90;99.90
24207;DHT22;12351;52.284;9.160;2023-08-17T00:04:17;19.90;99.90
24207;DHT22;12351;52.284;9.160;2023-08-17T00:07:05;19.90;99.90
24207;DHT22;12351;52.284;9.160;2023-08-17T00:09:51;19.90;99.90
24207;DHT22;12351;52.284;9.160;2023-08-17T00:12:38;19.90;99.90
24207;DHT22;12351;52.284;9.160;2023-08-17T00:15:25;19.80;99.90
24207;DHT22;12351;52.284;9.160;2023-08-17T00:18:12;19.70;99.90
24207;DHT22;12351;52.284;9.160;2023-08-17T00:20:59;19.70;99.90
24207;DHT22;12351;52.284;9.160;2023-08-17T00:23:46;19.70;99.90
24207;DHT22;12351;52.284;9.160;2023-08-17T00:26:32;19.70;99.90
24207;DHT22;12351;52.284;9.160;2023-08-17T00:29:19;19.60;99.90
24207;DHT22;12351;52.284;9.160;2023-08-17T00:32:06;19.60;99.90
24207;DHT22;12351;52.284;9.160;2023-08-17T00:34:53;19.60;99.90
24207;DHT22;12351;52.284;9.160;2023-08-17T00:37:40;19.50;99.90
24207;DHT22;12351;52.284;9.160;2023-08-17T00:40:27;19.60;99.90
24207;DHT22;12351;52.284;9.160;2023-08-17T00:43:14;19.60;99.90
24207;DHT22;12351;52.284;9.160;2023-08-17T00:46:06;19.60;99.90
24207;DHT22;12351;52.284;9.160;2023-08-17T00:48:57;19.50;99.90
24207;DHT22;12351;52.284;9.160;2023-08-17T00:51:45;19.50;99.90
24207;DHT22;12351;52.284;9.160;2023-08-17T00:54:35;19.50;99.90
24207;DHT22;12351;52.284;9.160;2023-08-17T00:57:22;19.60;99.90
24207;DHT22;12351;52.284;9.160;2023-08-17T01:00:11;19.60;99.90
24207;DHT22;12351;52.284;9.160;2023-08-17T01:02:59;19.50;99.90
24207;DHT22;12351;52.284;9.160;2023-08-17T01:05:45;19.50;99.90
24207;DHT22;12351;52.284;9.160;2023-08-17T01:08:32;19.50;99.90
24207;DHT22;12351;52.284;9.160;2023-08-17T01:11:24;19.50;99.90
24207;DHT22;12351;52.284;9.160;2023-08-17T01:14:14;19.40;99.90
24207;DHT22;12351;52.284;9.160;2023-08-17T01:17:03;19.50;99.90
24207;DHT22;12351;52.284;9.160;2023-08-17T01:19:51;19.40;99.90
24207;DHT22;12351;52.284;9.160;2023-08-17T01:22:41;19.40;99.90
24207;DHT22;12351;52.284;9.160;2023-08-17T01:25:29;19.40;99.90
24207;DHT22;12351;52.284;9.160;2023-08-17T01:28:18;19.40;99.90
24207;DHT22;12351;52.284;9.160;2023-08-17T01:31:09;19.20;99.90
24207;DHT22;12351;52.284;9.160;2023-08-17T01:34:02;19.20;99.90
24207;DHT22;12351;52.284;9.160;2023-08-17T01:36:50;19.20;99.90
24207;DHT22;12351;52.284;9.160;2023-08-17T01:39:41;19.30;99.90
24207;DHT22;12351;52.284;9.160;2023-08-17T01:42:29;19.20;99.90
24207;DHT22;12351;52.284;9.160;2023-08-17T01:45:20;19.20;99.90
24207;DHT22;12351;52.284;9.160;2023-08-17T01:48:09;19.20;99.90
24207;DHT22;12351;52.284;9.160;2023-08-17T01:50:57;19.20;99.90
24207;DHT22;12351;52.284;9.160;2023-08-17T01:53:44;19.20;99.90
24207;DHT22;12351;52.284;9.160;2023-08-17T01:56:30;19.20;99.90
24207;DHT22;12351;52.284;9.160;2023-08-17T01:59:18;19.20;99.90
24207;DHT22;12351;52.284;9.160;2023-08-17T02:02:07;19.20;99.90
24207;DHT22;12351;52.284;9.160;2023-08-17T02:04:54;19.20;99.90
24207;DHT22;12351;52.284;9.160;2023-08-17T02:07:42;19.20;99.90
24207;DHT22;12351;52.284;9.160;2023-08-17T02:10:30;19.20;99.90
24207;DHT22;12351;52.284;9.160;2023-08-17T02:13:18;19.20;99.90
24207;DHT22;12351;52.284;9.160;2023-08-17T02:16:10;19.20;99.90
24207;DHT22;12351;52.284;9.160;2023-08-17T02:18:58;19.20;99.90
24207;DHT22;12351;52.284;9.160;2023-08-17T02:21:47;19.20;99.90
24207;DHT22;12351;52.284;9.160;2023-08-17T02:24:38;19.20;99.90
24207;DHT22;12351;52.284;9.160;2023-08-17T02:27:27;19.10;99.90
24207;DHT22;12351;52.284;9.160;2023-08-17T02:30:18;19.10;99.90
24207;DHT22;12351;52.284;9.160;2023-08-17T02:33:06;19.10;99.90
24207;DHT22;12351;52.284;9.160;2023-08-17T02:35:56;19.00;99.90
24207;DHT22;12351;52.284;9.160;2023-08-17T02:38:48;18.90;99.90
24207;DHT22;12351;52.284;9.160;2023-08-17T02:41:39;18.90;99.90
24207;DHT22;12351;52.284;9.160;2023-08-17T02:44:33;18.90;99.90
24207;DHT22;12351;52.284;9.160;2023-08-17T02:47:22;18.80;99.90
24207;DHT22;12351;52.284;9.160;2023-08-17T02:50:15;18.80;99.90
24207;DHT22;12351;52.284;9.160;2023-08-17T02:53:05;18.70;99.90
24207;DHT22;12351;52.284;9.160;2023-08-17T02:55:55;18.80;99.90
24207;DHT22;12351;52.284;9.160;2023-08-17T02:58:49;18.70;99.90
24207;DHT22;12351;52.284;9.160;2023-08-17T03:01:40;18.70;99.90
24207;DHT22;12351;52.284;9.160;2023-08-17T03:04:29;18.70;99.90
24207;DHT22;12351;52.284;9.160;2023-08-17T03:07:21;18.70;99.90
24207;DHT22;12351;52.284;9.160;2023-08-17T03:10:11;18.70;99.90
24207;DHT22;12351;52.284;9.160;2023-08-17T03:13:01;18.70;99.90
24207;DHT22;12351;52.284;9.160;2023-08-17T03:15:54;18.70;99.90
24207;DHT22;12351;52.284;9.160;2023-08-17T03:18:47;18.80;99.90
24207;DHT22;12351;52.284;9.160;2023-08-17T03:21:37;18.80;99.90
24207;DHT22;12351;52.284;9.160;2023-08-17T03:24:29;18.80;99.90
24207;DHT22;12351;52.284;9.160;2023-08-17T03:27:22;18.80;99.90
24207;DHT22;12351;52.284;9.160;2023-08-17T03:30:11;18.80;99.90
24207;DHT22;12351;52.284;9.160;2023-08-17T03:33:01;18.80;99.90
24207;DHT22;12351;52.284;9.160;2023-08-17T03:35:50;18.80;99.90
24207;DHT22;12351;52.284;9.160;2023-08-17T03:38:43;18.80;99.90
24207;DHT22;12351;52.284;9.160;2023-08-17T03:41:33;18.90;99.90
24207;DHT22;12351;52.284;9.160;2023-08-17T03:44:24;18.90;99.90
24207;DHT22;12351;52.284;9.160;2023-08-17T03:47:15;18.90;99.90
24207;DHT22;12351;52.284;9.160;2023-08-17T03:50:06;18.90;99.90
24207;DHT22;12351;52.284;9.160;2023-08-17T03:52:55;18.90;99.90
24207;DHT22;12351;52.284;9.160;2023-08-17T03:55:48;18.90;99.90
24207;DHT22;12351;52.284;9.160;2023-08-17T03:58:39;18.90;99.90
24207;DHT22;12351;52.284;9.160;2023-08-17T04:01:28;18.90;99.90
24207;DHT22;12351;52.284;9.160;2023-08-17T04:04:19;18.90;99.90
24207;DHT22;12351;52.284;9.160;2023-08-17T04:07:06;18.90;99.90
24207;DHT22;12351;52.284;9.160;2023-08-17T04:09:56;18.90;99.90
24207;DHT22;12351;52.284;9.160;2023-08-17T04:12:45;18.90;99.90
24207;DHT22;12351;52.284;9.160;2023-08-17T04:15:36;18.90;99.90
24207;DHT22;12351;52.284;9.160;2023-08-17T04:18:25;18.90;99.90
24207;DHT22;12351;52.284;9.160;2023-08-17T04:21:16;18.90;99.90
24207;DHT22;12351;52.284;9.160;2023-08-17T04:24:06;19.00;99.90
24207;DHT22;12351;52.284;9.160;2023-08-17T04:26:58;19.00;99.90
24207;DHT22;12351;52.284;9.160;2023-08-17T04:29:53;19.00;99.90
24207;DHT22;12351;52.284;9.160;2023-08-17T04:32:41;19.00;99.90
24207;DHT22;12351;52.284;9.160;2023-08-17T04:35:33;19.00;99.90
24207;DHT22;12351;52.284;9.160;2023-08-17T04:38:23;19.00;99.90
24207;DHT22;12351;52.284;9.160;2023-08-17T04:41:12;19.00;99.90
24207;DHT22;12351;52.284;9.160;2023-08-17T04:44:03;19.00;99.90
24207;DHT22;12351;52.284;9.160;2023-08-17T04:46:55;19.00;99.90
24207;DHT22;12351;52.284;9.160;2023-08-17T04:49:44;19.00;99.90
24207;DHT22;12351;52.284;9.160;2023-08-17T04:52:38;19.00;99.90
24207;DHT22;12351;52.284;9.160;2023-08-17T04:55:29;19.00;99.90
24207;DHT22;12351;52.284;9.160;2023-08-17T04:58:20;19.00;99.90
24207;DHT22;12351;52.284;9.160;2023-08-17T05:01:11;19.00;99.90
24207;DHT22;12351;52.284;9.160;2023-08-17T05:04:01;19.00;99.90
24207;DHT22;12351;52.284;9.160;2023-08-17T05:06:53;19.00;99.90
24207;DHT22;12351;52.284;9.160;2023-08-17T05:09:42;19.00;99.90
24207;DHT22;12351;52.284;9.160;2023-08-17T05:12:32;18.90;99.90
24207;DHT22;12351;52.284;9.160;2023-08-17T05:15:24;18.90;99.90
24207;DHT22;12351;52.284;9.160;2023-08-17T05:18:12;18.90;99.90
24207;DHT22;12351;52.284;9.160;2023-08-17T05:21:03;18.90;99.90
24207;DHT22;12351;52.284;9.160;2023-08-17T05:23:55;19.00;99.90
24207;DHT22;12351;52.284;9.160;2023-08-17T05:26:45;18.90;99.90
24207;DHT22;12351;52.284;9.160;2023-08-17T05:29:34;19.00;99.90
24207;DHT22;12351;52.284;9.160;2023-08-17T05:32:25;18.90;99.90
24207;DHT22;12351;52.284;9.160;2023-08-17T05:35:15;19.00;99.90
24207;DHT22;12351;52.284;9.160;2023-08-17T05:38:05;19.00;99.90
24207;DHT22;12351;52.284;9.160;2023-08-17T05:40:56;19.00;99.90
24207;DHT22;12351;52.284;9.160;2023-08-17T05:43:44;19.00;99.90
24207;DHT22;12351;52.284;9.160;2023-08-17T05:46:37;18.90;99.90
24207;DHT22;12351;52.284;9.160;2023-08-17T05:49:29;18.90;99.90
24207;DHT22;12351;52.284;9.160;2023-08-17T05:52:18;18.90;99.90
24207;DHT22;12351;52.284;9.160;2023-08-17T05:55:09;18.90;99.90
24207;DHT22;12351;52.284;9.160;2023-08-17T05:57:57;18.90;99.90
24207;DHT22;12351;52.284;9.160;2023-08-17T06:00:50;18.90;99.90
24207;DHT22;12351;52.284;9.160;2023-08-17T06:03:40;18.90;99.90
24207;DHT22;12351;52.284;9.160;2023-08-17T06:06:33;19.00;99.90
24207;DHT22;12351;52.284;9.160;2023-08-17T06:09:22;19.00;99.90
24207;DHT22;12351;52.284;9.160;2023-08-17T06:12:15;19.00;99.90
24207;DHT22;12351;52.284;9.160;2023-08-17T06:15:04;19.00;99.90
24207;DHT22;12351;52.284;9.160;2023-08-17T06:17:52;19.00;99.90
24207;DHT22;12351;52.284;9.160;2023-08-17T06:20:44;19.00;99.90
24207;DHT22;12351;52.284;9.160;2023-08-17T06:23:33;19.00;99.90
24207;DHT22;12351;52.284;9.160;2023-08-17T06:26:23;19.00;99.90
24207;DHT22;12351;52.284;9.160;2023-08-17T06:29:15;19.00;99.90
24207;DHT22;12351;52.284;9.160;2023-08-17T06:32:03;19.00;99.90
24207;DHT22;12351;52.284;9.160;2023-08-17T06:34:53;19.00;99.90
24207;DHT22;12351;52.284;9.160;2023-08-17T06:37:44;19.00;99.90
24207;DHT22;12351;52.284;9.160;2023-08-17T06:40:35;19.00;99.90
24207;DHT22;12351;52.284;9.160;2023-08-17T06:43:24;19.00;99.90
24207;DHT22;12351;52.284;9.160;2023-08-17T06:46:13;19.00;99.90
24207;DHT22;12351;52.284;9.160;2023-08-17T06:49:06;19.00;99.90
24207;DHT22;12351;52.284;9.160;2023-08-17T06:51:56;19.10;99.90
24207;DHT22;12351;52.284;9.160;2023-08-17T06:54:47;19.10;99.90
24207;DHT22;12351;52.284;9.160;2023-08-17T06:57:39;19.10;99.90
24207;DHT22;12351;52.284;9.160;2023-08-17T07:00:28;19.10;99.90
24207;DHT22;12351;52.284;9.160;2023-08-17T07:03:17;19.10;99.90
24207;DHT22;12351;52.284;9.160;2023-08-17T07:06:07;19.20;99.90
24207;DHT22;12351;52.284;9.160;2023-08-17T07:08:59;19.20;99.90
24207;DHT22;12351;52.284;9.160;2023-08-17T07:11:50;19.20;99.90
24207;DHT22;12351;52.284;9.160;2023-08-17T07:14:41;19.20;99.90
24207;DHT22;12351;52.284;9.160;2023-08-17T07:17:30;19.20;99.90
24207;DHT22;12351;52.284;9.160;2023-08-17T07:20:20;19.20;99.90
24207;DHT22;12351;52.284;9.160;2023-08-17T07:23:15;19.20;99.90
24207;DHT22;12351;52.284;9.160;2023-08-17T07:26:04;19.20;99.90
24207;DHT22;12351;52.284;9.160;2023-08-17T07:28:58;19.20;99.90
24207;DHT22;12351;52.284;9.160;2023-08-17T07:31:46;19.20;99.90
24207;DHT22;12351;52.284;9.160;2023-08-17T07:34:35;19.20;99.90
24207;DHT22;12351;52.284;9.160;2023-08-17T07:37:26;19.20;99.90
24207;DHT22;12351;52.284;9.160;2023-08-17T07:40:18;19.20;99.90
24207;DHT22;12351;52.284;9.160;2023-08-17T07:43:10;19.20;99.90
24207;DHT22;12351;52.284;9.160;2023-08-17T07:52:00;19.20;99.90
24207;DHT22;12351;52.284;9.160;2023-08-17T07:54:50;19.20;99.90
24207;DHT22;12351;52.284;9.160;2023-08-17T07:57:42;19.20;99.90
24207;DHT22;12351;52.284;9.160;2023-08-17T08:00:32;19.30;99.90
24207;DHT22;12351;52.284;9.160;2023-08-17T08:03:18;19.20;99.90
24207;DHT22;12351;52.284;9.160;2023-08-17T08:06:11;19.20;99.90
24207;DHT22;12351;52.284;9.160;2023-08-17T08:09:00;19.30;99.90
24207;DHT22;12351;52.284;9.160;2023-08-17T08:11:49;19.30;99.90
24207;DHT22;12351;52.284;9.160;2023-08-17T08:14:40;19.30;99.90
24207;DHT22;12351;52.284;9.160;2023-08-17T08:17:31;19.30;99.90
24207;DHT22;12351;52.284;9.160;2023-08-17T08:20:21;19.40;99.90
24207;DHT22;12351;52.284;9.160;2023-08-17T08:23:10;19.30;99.90
24207;DHT22;12351;52.284;9.160;2023-08-17T08:26:01;19.30;99.90
24207;DHT22;12351;52.284;9.160;2023-08-17T08:28:50;19.30;99.90
24207;DHT22;12351;52.284;9.160;2023-08-17T08:31:42;19.40;99.90
24207;DHT22;12351;52.284;9.160;2023-08-17T08:34:32;19.40;99.90
24207;DHT22;12351;52.284;9.160;2023-08-17T08:37:20;19.30;99.90
24207;DHT22;12351;52.284;9.160;2023-08-17T08:40:12;19.30;99.90
24207;DHT22;12351;52.284;9.160;2023-08-17T08:43:01;19.30;99.90
24207;DHT22;12351;52.284;9.160;2023-08-17T08:45:52;19.30;99.90
24207;DHT22;12351;52.284;9.160;2023-08-17T08:48:43;19.40;99.90
24207;DHT22;12351;52.284;9.160;2023-08-17T08:51:34;19.30;99.90
24207;DHT22;12351;52.284;9.160;2023-08-17T08:54:23;19.30;99.90
24207;DHT22;12351;52.284;9.160;2023-08-17T08:57:15;19.40;99.90
24207;DHT22;12351;52.284;9.160;2023-08-17T09:00:04;19.20;99.90
24207;DHT22;12351;52.284;9.160;2023-08-17T09:02:58;19.30;99.90
24207;DHT22;12351;52.284;9.160;2023-08-17T09:05:47;19.30;99.90
24207;DHT22;12351;52.284;9.160;2023-08-17T09:08:37;19.30;99.90
24207;DHT22;12351;52.284;9.160;2023-08-17T09:11:26;19.30;99.90
24207;DHT22;12351;52.284;9.160;2023-08-17T09:14:14;19.30;99.90
24207;DHT22;12351;52.284;9.160;2023-08-17T09:17:04;19.30;99.90
24207;DHT22;12351;52.284;9.160;2023-08-17T09:19:54;19.20;99.90
24207;DHT22;12351;52.284;9.160;2023-08-17T09:22:45;19.20;99.90
24207;DHT22;12351;52.284;9.160;2023-08-17T09:25:37;19.10;99.90
24207;DHT22;12351;52.284;9.160;2023-08-17T09:28:28;19.00;99.90
24207;DHT22;12351;52.284;9.160;2023-08-17T09:31:20;19.10;99.90
24207;DHT22;12351;52.284;9.160;2023-08-17T09:34:10;19.10;99.90
24207;DHT22;12351;52.284;9.160;2023-08-17T09:37:03;19.00;99.90
24207;DHT22;12351;52.284;9.160;2023-08-17T09:39:50;19.10;99.90
24207;DHT22;12351;52.284;9.160;2023-08-17T09:42:41;19.20;99.90
24207;DHT22;12351;52.284;9.160;2023-08-17T09:45:34;19.20;99.90
24207;DHT22;12351;52.284;9.160;2023-08-17T09:48:23;19.20;99.90
24207;DHT22;12351;52.284;9.160;2023-08-17T09:57:55;19.20;99.90
24207;DHT22;12351;52.284;9.160;2023-08-17T10:00:46;19.00;99.90
24207;DHT22;12351;52.284;9.160;2023-08-17T10:03:37;19.00;99.90
24207;DHT22;12351;52.284;9.160;2023-08-17T10:06:29;19.00;99.90
24207;DHT22;12351;52.284;9.160;2023-08-17T10:09:20;19.00;99.90
24207;DHT22;12351;52.284;9.160;2023-08-17T10:12:10;19.00;99.90
24207;DHT22;12351;52.284;9.160;2023-08-17T10:15:03;18.90;99.90
24207;DHT22;12351;52.284;9.160;2023-08-17T10:17:55;18.80;99.90
24207;DHT22;12351;52.284;9.160;2023-08-17T10:20:45;19.00;99.90
24207;DHT22;12351;52.284;9.160;2023-08-17T10:23:34;19.10;99.90
24207;DHT22;12351;52.284;9.160;2023-08-17T10:26:25;19.00;99.90
24207;DHT22;12351;52.284;9.160;2023-08-17T10:29:15;19.00;99.90
24207;DHT22;12351;52.284;9.160;2023-08-17T10:32:02;19.00;99.90
24207;DHT22;12351;52.284;9.160;2023-08-17T10:34:53;19.10;99.90
24207;DHT22;12351;52.284;9.160;2023-08-17T10:37:43;19.20;99.90
24207;DHT22;12351;52.284;9.160;2023-08-17T10:40:35;19.20;99.90
24207;DHT22;12351;52.284;9.160;2023-08-17T10:43:32;19.20;99.90
24207;DHT22;12351;52.284;9.160;2023-08-17T10:46:19;19.20;99.90
24207;DHT22;12351;52.284;9.160;2023-08-17T10:49:23;19.20;99.90
24207;DHT22;12351;52.284;9.160;2023-08-17T10:52:01;19.20;99.90
24207;DHT22;12351;52.284;9.160;2023-08-17T10:54:51;19.20;99.90
24207;DHT22;12351;52.284;9.160;2023-08-17T10:57:43;19.20;99.90
24207;DHT22;12351;52.284;9.160;2023-08-17T11:00:34;19.20;99.90
24207;DHT22;12351;52.284;9.160;2023-08-17T11:03:26;19.10;99.90
24207;DHT22;12351;52.284;9.160;2023-08-17T11:06:17;19.20;99.90
24207;DHT22;12351;52.284;9.160;2023-08-17T11:09:08;19.20;99.90
24207;DHT22;12351;52.284;9.160;2023-08-17T11:12:00;19.20;99.90
24207;DHT22;12351;52.284;9.160;2023-08-17T11:14:50;19.00;99.90
24207;DHT22;12351;52.284;9.160;2023-08-17T11:17:41;19.00;99.90
24207;DHT22;12351;52.284;9.160;2023-08-17T11:20:31;19.10;99.90
24207;DHT22;12351;52.284;9.160;2023-08-17T11:23:22;19.20;99.90
24207;DHT22;12351;52.284;9.160;2023-08-17T11:26:15;19.20;99.90
24207;DHT22;12351;52.284;9.160;2023-08-17T11:29:05;19.20;99.90
24207;DHT22;12351;52.284;9.160;2023-08-17T11:31:55;19.20;99.90
24207;DHT22;12351;52.284;9.160;2023-08-17T11:34:45;19.20;99.90
24207;DHT22;12351;52.284;9.160;2023-08-17T11:37:38;19.20;99.90
24207;DHT22;12351;52.284;9.160;2023-08-17T11:40:27;19.10;99.90
24207;DHT22;12351;52.284;9.160;2023-08-17T11:43:18;19.10;99.90
24207;DHT22;12351;52.284;9.160;2023-08-17T11:46:07;19.00;99.90
24207;DHT22;12351;52.284;9.160;2023-08-17T11:48:59;19.00;99.90
24207;DHT22;12351;52.284;9.160;2023-08-17T11:51:48;19.10;99.90
24207;DHT22;12351;52.284;9.160;2023-08-17T11:54:40;19.20;99.90
24207;DHT22;12351;52.284;9.160;2023-08-17T11:57:32;19.20;99.90
24207;DHT22;12351;52.284;9.160;2023-08-17T12:00:22;19.20;99.90
24207;DHT22;12351;52.284;9.160;2023-08-17T12:03:14;19.00;99.90
24207;DHT22;12351;52.284;9.160;2023-08-17T12:06:05;19.00;99.90
24207;DHT22;12351;52.284;9.160;2023-08-17T12:08:56;19.00;99.90
24207;DHT22;12351;52.284;9.160;2023-08-17T12:11:52;18.90;99.90
24207;DHT22;12351;52.284;9.160;2023-08-17T12:17:28;19.00;99.90
24207;DHT22;12351;52.284;9.160;2023-08-17T12:20:23;19.00;99.90
24207;DHT22;12351;52.284;9.160;2023-08-17T12:23:13;19.00;99.90
24207;DHT22;12351;52.284;9.160;2023-08-17T12:26:06;18.80;99.90
24207;DHT22;12351;52.284;9.160;2023-08-17T12:28:59;18.70;99.90
24207;DHT22;12351;52.284;9.160;2023-08-17T12:31:47;18.80;99.90
24207;DHT22;12351;52.284;9.160;2023-08-17T12:34:40;18.60;99.90
24207;DHT22;12351;52.284;9.160;2023-08-17T12:37:32;18.60;99.90
24207;DHT22;12351;52.284;9.160;2023-08-17T12:40:22;18.80;99.90
24207;DHT22;12351;52.284;9.160;2023-08-17T12:43:16;18.90;99.90
24207;DHT22;12351;52.284;9.160;2023-08-17T12:46:08;18.90;99.90
24207;DHT22;12351;52.284;9.160;2023-08-17T12:48:59;18.90;99.90
24207;DHT22;12351;52.284;9.160;2023-08-17T12:51:50;18.90;99.90
24207;DHT22;12351;52.284;9.160;2023-08-17T12:54:39;18.70;99.90
24207;DHT22;12351;52.284;9.160;2023-08-17T12:57:29;18.70;99.90
24207;DHT22;12351;52.284;9.160;2023-08-17T13:00:19;18.80;99.90
24207;DHT22;12351;52.284;9.160;2023-08-17T13:03:13;18.80;99.90
24207;DHT22;12351;52.284;9.160;2023-08-17T13:06:04;18.90;99.90
24207;DHT22;12351;52.284;9.160;2023-08-17T13:08:53;18.70;99.90
24207;DHT22;12351;52.284;9.160;2023-08-17T13:11:45;18.70;99.90
24207;DHT22;12351;52.284;9.160;2023-08-17T13:14:36;18.70;99.90
24207;DHT22;12351;52.284;9.160;2023-08-17T13:17:27;18.70;99.90
24207;DHT22;12351;52.284;9.160;2023-08-17T13:20:18;18.80;99.90
24207;DHT22;12351;52.284;9.160;2023-08-17T13:23:06;18.90;99.90
24207;DHT22;12351;52.284;9.160;2023-08-17T13:25:54;18.80;99.90
24207;DHT22;12351;52.284;9.160;2023-08-17T13:28:45;18.90;99.90
24207;DHT22;12351;52.284;9.160;2023-08-17T13:31:34;18.80;99.90
24207;DHT22;12351;52.284;9.160;2023-08-17T13:34:23;18.80;99.90
24207;DHT22;12351;52.284;9.160;2023-08-17T13:37:13;18.90;99.90
24207;DHT22;12351;52.284;9.160;2023-08-17T13:40:04;18.90;99.90
24207;DHT22;12351;52.284;9.160;2023-08-17T13:42:55;18.90;99.90
24207;DHT22;12351;52.284;9.160;2023-08-17T13:45:48;18.70;99.90
24207;DHT22;12351;52.284;9.160;2023-08-17T13:48:36;18.70;99.90
24207;DHT22;12351;52.284;9.160;2023-08-17T13:51:26;18.70;99.90
24207;DHT22;12351;52.284;9.160;2023-08-17T13:54:15;18.80;99.90
24207;DHT22;12351;52.284;9.160;2023-08-17T13:57:04;18.80;99.90
24207;DHT22;12351;52.284;9.160;2023-08-17T13:59:55;18.80;99.90
24207;DHT22;12351;52.284;9.160;2023-08-17T14:02:47;18.90;99.90
24207;DHT22;12351;52.284;9.160;2023-08-17T14:05:37;19.00;99.90
24207;DHT22;12351;52.284;9.160;2023-08-17T14:08:25;19.00;99.90
24207;DHT22;12351;52.284;9.160;2023-08-17T14:11:15;19.00;99.90
24207;DHT22;12351;52.284;9.160;2023-08-17T14:14:09;19.00;99.90
24207;DHT22;12351;52.284;9.160;2023-08-17T14:16:57;18.90;99.90
24207;DHT22;12351;52.284;9.160;2023-08-17T14:19:46;18.90;99.90
24207;DHT22;12351;52.284;9.160;2023-08-17T14:22:35;18.90;99.90
24207;DHT22;12351;52.284;9.160;2023-08-17T14:25:25;18.90;99.90
24207;DHT22;12351;52.284;9.160;2023-08-17T14:28:16;19.00;99.90
24207;DHT22;12351;52.284;9.160;2023-08-17T14:31:07;18.90;99.90
24207;DHT22;12351;52.284;9.160;2023-08-17T14:33:59;18.90;99.90
24207;DHT22;12351;52.284;9.160;2023-08-17T14:36:51;18.90;99.90
24207;DHT22;12351;52.284;9.160;2023-08-17T14:39:42;18.90;99.90
24207;DHT22;12351;52.284;9.160;2023-08-17T14:42:34;19.00;99.90
24207;DHT22;12351;52.284;9.160;2023-08-17T14:45:23;18.90;99.90
24207;DHT22;12351;52.284;9.160;2023-08-17T14:48:13;19.00;99.90
24207;DHT22;12351;52.284;9.160;2023-08-17T14:51:00;18.90;99.90
24207;DHT22;12351;52.284;9.160;2023-08-17T14:53:50;18.90;99.90
24207;DHT22;12351;52.284;9.160;2023-08-17T14:56:42;19.00;99.90
24207;DHT22;12351;52.284;9.160;2023-08-17T14:59:33;18.90;99.90
24207;DHT22;12351;52.284;9.160;2023-08-17T15:02:25;19.00;99.90
24207;DHT22;12351;52.284;9.160;2023-08-17T15:05:13;18.90;99.90
24207;DHT22;12351;52.284;9.160;2023-08-17T15:08:02;18.80;99.90
24207;DHT22;12351;52.284;9.160;2023-08-17T15:10:55;18.90;99.90
24207;DHT22;12351;52.284;9.160;2023-08-17T15:13:46;18.80;99.90
24207;DHT22;12351;52.284;9.160;2023-08-17T15:16:35;19.00;99.90
24207;DHT22;12351;52.284;9.160;2023-08-17T15:19:27;19.00;99.90
24207;DHT22;12351;52.284;9.160;2023-08-17T15:22:17;18.90;99.90
24207;DHT22;12351;52.284;9.160;2023-08-17T15:25:07;18.90;99.90
24207;DHT22;12351;52.284;9.160;2023-08-17T15:27:58;18.90;99.90
24207;DHT22;12351;52.284;9.160;2023-08-17T15:30:59;19.00;99.90
24207;DHT22;12351;52.284;9.160;2023-08-17T15:33:40;19.00;99.90
24207;DHT22;12351;52.284;9.160;2023-08-17T15:36:30;18.90;99.90
24207;DHT22;12351;52.284;9.160;2023-08-17T15:39:22;18.90;99.90
24207;DHT22;12351;52.284;9.160;2023-08-17T15:42:09;19.00;99.90
24207;DHT22;12351;52.284;9.160;2023-08-17T15:45:00;19.00;99.90
24207;DHT22;12351;52.284;9.160;2023-08-17T15:47:49;19.00;99.90
24207;DHT22;12351;52.284;9.160;2023-08-17T15:50:41;19.10;99.90
24207;DHT22;12351;52.284;9.160;2023-08-17T15:53:30;19.10;99.90
24207;DHT22;12351;52.284;9.160;2023-08-17T15:56:19;19.10;99.90
24207;DHT22;12351;52.284;9.160;2023-08-17T15:59:07;19.10;99.90
24207;DHT22;12351;52.284;9.160;2023-08-17T16:02:00;19.00;99.90
24207;DHT22;12351;52.284;9.160;2023-08-17T16:04:49;19.10;99.90
24207;DHT22;12351;52.284;9.160;2023-08-17T16:07:44;19.10;99.90
24207;DHT22;12351;52.284;9.160;2023-08-17T16:10:32;19.10;99.90
24207;DHT22;12351;52.284;9.160;2023-08-17T16:13:22;19.10;99.90
24207;DHT22;12351;52.284;9.160;2023-08-17T16:16:11;19.10;99.90
24207;DHT22;12351;52.284;9.160;2023-08-17T16:19:01;19.10;99.90
24207;DHT22;12351;52.284;9.160;2023-08-17T16:21:51;19.00;99.90
24207;DHT22;12351;52.284;9.160;2023-08-17T16:24:40;19.00;99.90
24207;DHT22;12351;52.284;9.160;2023-08-17T16:27:33;19.00;99.90
24207;DHT22;12351;52.284;9.160;2023-08-17T16:30:21;19.00;99.90
24207;DHT22;12351;52.284;9.160;2023-08-17T16:33:11;19.00;99.90
24207;DHT22;12351;52.284;9.160;2023-08-17T16:36:02;19.10;99.90
24207;DHT22;12351;52.284;9.160;2023-08-17T16:38:54;19.00;99.90
24207;DHT22;12351;52.284;9.160;2023-08-17T16:41:44;19.10;99.90
24207;DHT22;12351;52.284;9.160;2023-08-17T16:44:35;19.10;99.90
24207;DHT22;12351;52.284;9.160;2023-08-17T16:47:25;19.10;99.90
24207;DHT22;12351;52.284;9.160;2023-08-17T16:50:17;19.10;99.90
24207;DHT22;12351;52.284;9.160;2023-08-17T16:53:05;19.10;99.90
24207;DHT22;12351;52.284;9.160;2023-08-17T16:55:58;19.00;99.90
24207;DHT22;12351;52.284;9.160;2023-08-17T16:58:46;19.00;99.90
24207;DHT22;12351;52.284;9.160;2023-08-17T17:01:39;19.00;99.90
24207;DHT22;12351;52.284;9.160;2023-08-17T17:04:28;19.10;99.90
24207;DHT22;12351;52.284;9.160;2023-08-17T17:07:20;19.10;99.90
24207;DHT22;12351;52.284;9.160;2023-08-17T17:10:09;19.10;99.90
24207;DHT22;12351;52.284;9.160;2023-08-17T17:13:01;19.10;99.90
24207;DHT22;12351;52.284;9.160;2023-08-17T17:15:52;19.00;99.90
24207;DHT22;12351;52.284;9.160;2023-08-17T17:18:40;19.00;99.90
24207;DHT22;12351;52.284;9.160;2023-08-17T17:21:31;19.00;99.90
24207;DHT22;12351;52.284;9.160;2023-08-17T17:24:21;19.00;99.90
24207;DHT22;12351;52.284;9.160;2023-08-17T17:27:09;18.90;99.90
24207;DHT22;12351;52.284;9.160;2023-08-17T17:30:03;19.00;99.90
24207;DHT22;12351;52.284;9.160;2023-08-17T17:32:54;19.00;99.90
24207;DHT22;12351;52.284;9.160;2023-08-17T17:35:44;19.00;99.90
24207;DHT22;12351;52.284;9.160;2023-08-17T17:38:35;18.90;99.90
24207;DHT22;12351;52.284;9.160;2023-08-17T17:41:26;19.00;99.90
24207;DHT22;12351;52.284;9.160;2023-08-17T17:44:18;19.00;99.90
24207;DHT22;12351;52.284;9.160;2023-08-17T17:47:07;19.00;99.90
24207;DHT22;12351;52.284;9.160;2023-08-17T17:49:59;18.90;99.90
24207;DHT22;12351;52.284;9.160;2023-08-17T17:52:48;19.00;99.90
24207;DHT22;12351;52.284;9.160;2023-08-17T17:55:38;18.90;99.90
24207;DHT22;12351;52.284;9.160;2023-08-17T17:58:29;18.90;99.90
24207;DHT22;12351;52.284;9.160;2023-08-17T18:01:20;18.90;99.90
24207;DHT22;12351;52.284;9.160;2023-08-17T18:04:11;18.90;99.90
24207;DHT22;12351;52.284;9.160;2023-08-17T18:07:02;18.90;99.90
24207;DHT22;12351;52.284;9.160;2023-08-17T18:09:55;18.90;99.90